sensor_id;sensor_type;location;lat;lon;timestamp;P1;durP1;ratioP1;P2;durP2;ratioP2
26989;SDS011;14537;47.788;11.858;2022-10-16T00:00:18;3.00;;;1.58;;
26989;SDS011;14537;47.788;11.858;2022-10-16T00:02:44;2.97;;;1.27;;
26989;SDS011;14537;47.788;11.858;2022-10-16T00:05:10;2.88;;;1.20;;
26989;SDS011;14537;47.788;11.858;2022-10-16T00:07:35;3.88;;;0.98;;
26989;SDS011;14537;47.788;11.858;2022-10-16T00:10:01;2.30;;;0.80;;
26989;SDS011;14537;47.788;11.858;2022-10-16T00:12:27;1.33;;;1.00;;
26989;SDS011;14537;47.788;11.858;2022-10-16T00:14:52;2.22;;;1.00;;
26989;SDS011;14537;47.788;11.858;2022-10-16T00:17:18;1.10;;;0.80;;
26989;SDS011;14537;47.788;11.858;2022-10-16T00:19:43;3.33;;;1.48;;
26989;SDS011;14537;47.788;11.858;2022-10-16T00:22:09;1.90;;;1.00;;
26989;SDS011;14537;47.788;11.858;2022-10-16T00:24:36;1.95;;;1.08;;
26989;SDS011;14537;47.788;11.858;2022-10-16T00:27:01;1.58;;;0.93;;
26989;SDS011;14537;47.788;11.858;2022-10-16T00:29:27;1.23;;;0.80;;
26989;SDS011;14537;47.788;11.858;2022-10-16T00:31:53;1.05;;;0.50;;
26989;SDS011;14537;47.788;11.858;2022-10-16T00:34:18;1.38;;;0.73;;
26989;SDS011;14537;47.788;11.858;2022-10-16T00:36:44;1.23;;;0.90;;
26989;SDS011;14537;47.788;11.858;2022-10-16T00:39:09;4.70;;;0.95;;
26989;SDS011;14537;47.788;11.858;2022-10-16T00:41:35;1.23;;;0.70;;
26989;SDS011;14537;47.788;11.858;2022-10-16T00:44:02;3.25;;;0.93;;
26989;SDS011;14537;47.788;11.858;2022-10-16T00:46:48;1.35;;;0.80;;
26989;SDS011;14537;47.788;11.858;2022-10-16T00:49:16;1.00;;;0.50;;
26989;SDS011;14537;47.788;11.858;2022-10-16T00:51:45;1.08;;;0.70;;
26989;SDS011;14537;47.788;11.858;2022-10-16T00:54:23;2.00;;;0.93;;
26989;SDS011;14537;47.788;11.858;2022-10-16T00:56:52;2.67;;;0.90;;
26989;SDS011;14537;47.788;11.858;2022-10-16T00:59:24;1.88;;;0.80;;
26989;SDS011;14537;47.788;11.858;2022-10-16T01:01:55;0.77;;;0.57;;
26989;SDS011;14537;47.788;11.858;2022-10-16T01:04:22;0.90;;;0.73;;
26989;SDS011;14537;47.788;11.858;2022-10-16T01:09:54;1.20;;;0.68;;
26989;SDS011;14537;47.788;11.858;2022-10-16T01:20:44;1.17;;;0.50;;
26989;SDS011;14537;47.788;11.858;2022-10-16T01:23:26;1.27;;;0.75;;
26989;SDS011;14537;47.788;11.858;2022-10-16T01:28:54;1.00;;;0.80;;
26989;SDS011;14537;47.788;11.858;2022-10-16T01:31:31;0.70;;;0.60;;
26989;SDS011;14537;47.788;11.858;2022-10-16T01:34:01;0.70;;;0.43;;
26989;SDS011;14537;47.788;11.858;2022-10-16T01:36:35;2.88;;;0.75;;
26989;SDS011;14537;47.788;11.858;2022-10-16T01:39:06;2.72;;;0.52;;
26989;SDS011;14537;47.788;11.858;2022-10-16T01:41:43;0.60;;;0.50;;
26989;SDS011;14537;47.788;11.858;2022-10-16T01:44:15;1.23;;;0.82;;
26989;SDS011;14537;47.788;11.858;2022-10-16T01:46:48;2.13;;;0.45;;
26989;SDS011;14537;47.788;11.858;2022-10-16T01:49:16;0.68;;;0.55;;
26989;SDS011;14537;47.788;11.858;2022-10-16T01:51:44;0.65;;;0.55;;
26989;SDS011;14537;47.788;11.858;2022-10-16T01:54:12;1.77;;;0.60;;
26989;SDS011;14537;47.788;11.858;2022-10-16T01:56:40;0.80;;;0.50;;
26989;SDS011;14537;47.788;11.858;2022-10-16T01:59:09;0.65;;;0.50;;
26989;SDS011;14537;47.788;11.858;2022-10-16T02:01:39;0.65;;;0.50;;
26989;SDS011;14537;47.788;11.858;2022-10-16T02:04:09;0.40;;;0.40;;
26989;SDS011;14537;47.788;11.858;2022-10-16T02:06:42;1.15;;;0.70;;
26989;SDS011;14537;47.788;11.858;2022-10-16T02:09:08;0.55;;;0.50;;
26989;SDS011;14537;47.788;11.858;2022-10-16T02:11:34;1.45;;;0.85;;
26989;SDS011;14537;47.788;11.858;2022-10-16T02:14:06;0.60;;;0.60;;
26989;SDS011;14537;47.788;11.858;2022-10-16T02:16:33;2.95;;;0.60;;
26989;SDS011;14537;47.788;11.858;2022-10-16T02:19:04;3.10;;;1.17;;
26989;SDS011;14537;47.788;11.858;2022-10-16T02:21:41;1.52;;;0.90;;
26989;SDS011;14537;47.788;11.858;2022-10-16T02:27:17;0.90;;;0.68;;
26989;SDS011;14537;47.788;11.858;2022-10-16T02:32:45;0.55;;;0.50;;
26989;SDS011;14537;47.788;11.858;2022-10-16T02:35:14;1.10;;;0.60;;
26989;SDS011;14537;47.788;11.858;2022-10-16T02:37:43;0.75;;;0.40;;
26989;SDS011;14537;47.788;11.858;2022-10-16T02:40:10;0.40;;;0.40;;
26989;SDS011;14537;47.788;11.858;2022-10-16T02:42:37;5.38;;;0.68;;
26989;SDS011;14537;47.788;11.858;2022-10-16T02:45:05;1.08;;;0.60;;
26989;SDS011;14537;47.788;11.858;2022-10-16T02:47:32;0.50;;;0.50;;
26989;SDS011;14537;47.788;11.858;2022-10-16T02:49:58;1.02;;;0.50;;
26989;SDS011;14537;47.788;11.858;2022-10-16T02:52:24;1.27;;;0.60;;
26989;SDS011;14537;47.788;11.858;2022-10-16T02:54:51;1.17;;;0.73;;
26989;SDS011;14537;47.788;11.858;2022-10-16T02:57:17;0.73;;;0.60;;
26989;SDS011;14537;47.788;11.858;2022-10-16T02:59:43;1.25;;;0.70;;
26989;SDS011;14537;47.788;11.858;2022-10-16T03:02:09;2.25;;;0.70;;
26989;SDS011;14537;47.788;11.858;2022-10-16T03:04:34;0.90;;;0.73;;
26989;SDS011;14537;47.788;11.858;2022-10-16T03:07:00;1.58;;;0.50;;
26989;SDS011;14537;47.788;11.858;2022-10-16T03:09:26;0.55;;;0.50;;
26989;SDS011;14537;47.788;11.858;2022-10-16T03:11:52;1.23;;;0.70;;
26989;SDS011;14537;47.788;11.858;2022-10-16T03:14:17;0.73;;;0.60;;
26989;SDS011;14537;47.788;11.858;2022-10-16T03:16:43;0.93;;;0.57;;
26989;SDS011;14537;47.788;11.858;2022-10-16T03:19:09;0.40;;;0.40;;
26989;SDS011;14537;47.788;11.858;2022-10-16T03:21:34;0.90;;;0.50;;
26989;SDS011;14537;47.788;11.858;2022-10-16T03:24:00;1.33;;;0.80;;
26989;SDS011;14537;47.788;11.858;2022-10-16T03:26:26;0.45;;;0.43;;
26989;SDS011;14537;47.788;11.858;2022-10-16T03:28:51;0.30;;;0.30;;
26989;SDS011;14537;47.788;11.858;2022-10-16T03:31:17;1.25;;;0.63;;
26989;SDS011;14537;47.788;11.858;2022-10-16T03:33:43;0.63;;;0.55;;
26989;SDS011;14537;47.788;11.858;2022-10-16T03:36:08;0.85;;;0.50;;
26989;SDS011;14537;47.788;11.858;2022-10-16T03:38:34;1.13;;;0.80;;
26989;SDS011;14537;47.788;11.858;2022-10-16T03:40:59;0.57;;;0.57;;
26989;SDS011;14537;47.788;11.858;2022-10-16T03:43:25;0.70;;;0.70;;
26989;SDS011;14537;47.788;11.858;2022-10-16T03:45:51;0.75;;;0.75;;
26989;SDS011;14537;47.788;11.858;2022-10-16T03:48:17;1.15;;;0.60;;
26989;SDS011;14537;47.788;11.858;2022-10-16T03:50:43;0.47;;;0.47;;
26989;SDS011;14537;47.788;11.858;2022-10-16T03:53:09;0.73;;;0.60;;
26989;SDS011;14537;47.788;11.858;2022-10-16T03:55:35;0.50;;;0.50;;
26989;SDS011;14537;47.788;11.858;2022-10-16T03:58:01;0.43;;;0.43;;
26989;SDS011;14537;47.788;11.858;2022-10-16T04:00:27;4.20;;;0.73;;
26989;SDS011;14537;47.788;11.858;2022-10-16T04:02:52;1.02;;;0.75;;
26989;SDS011;14537;47.788;11.858;2022-10-16T04:05:18;1.23;;;0.82;;
26989;SDS011;14537;47.788;11.858;2022-10-16T04:07:44;0.95;;;0.80;;
26989;SDS011;14537;47.788;11.858;2022-10-16T04:10:09;1.42;;;0.80;;
26989;SDS011;14537;47.788;11.858;2022-10-16T04:12:35;2.20;;;0.80;;
26989;SDS011;14537;47.788;11.858;2022-10-16T04:15:01;18.60;;;1.23;;
26989;SDS011;14537;47.788;11.858;2022-10-16T04:17:27;0.98;;;0.88;;
26989;SDS011;14537;47.788;11.858;2022-10-16T04:19:52;1.63;;;1.00;;
26989;SDS011;14537;47.788;11.858;2022-10-16T04:22:18;3.45;;;0.90;;
26989;SDS011;14537;47.788;11.858;2022-10-16T04:24:44;1.15;;;0.85;;
26989;SDS011;14537;47.788;11.858;2022-10-16T04:27:09;0.55;;;0.55;;
26989;SDS011;14537;47.788;11.858;2022-10-16T04:29:35;2.67;;;0.77;;
26989;SDS011;14537;47.788;11.858;2022-10-16T04:32:01;1.00;;;0.80;;
26989;SDS011;14537;47.788;11.858;2022-10-16T04:34:26;2.83;;;0.73;;
26989;SDS011;14537;47.788;11.858;2022-10-16T04:36:52;1.83;;;0.82;;
26989;SDS011;14537;47.788;11.858;2022-10-16T04:39:18;3.22;;;1.58;;
26989;SDS011;14537;47.788;11.858;2022-10-16T04:41:43;12.70;;;4.95;;
26989;SDS011;14537;47.788;11.858;2022-10-16T04:44:09;19.15;;;9.50;;
26989;SDS011;14537;47.788;11.858;2022-10-16T04:46:35;24.85;;;9.63;;
26989;SDS011;14537;47.788;11.858;2022-10-16T04:49:00;25.80;;;9.70;;
26989;SDS011;14537;47.788;11.858;2022-10-16T04:51:26;15.00;;;7.30;;
26989;SDS011;14537;47.788;11.858;2022-10-16T04:53:53;10.15;;;4.78;;
26989;SDS011;14537;47.788;11.858;2022-10-16T04:56:19;5.32;;;2.67;;
26989;SDS011;14537;47.788;11.858;2022-10-16T04:58:46;2.60;;;1.50;;
26989;SDS011;14537;47.788;11.858;2022-10-16T05:01:12;1.80;;;1.42;;
26989;SDS011;14537;47.788;11.858;2022-10-16T05:03:38;3.67;;;2.10;;
26989;SDS011;14537;47.788;11.858;2022-10-16T05:06:05;2.65;;;1.98;;
26989;SDS011;14537;47.788;11.858;2022-10-16T05:08:31;4.75;;;2.05;;
26989;SDS011;14537;47.788;11.858;2022-10-16T05:10:57;2.03;;;1.45;;
26989;SDS011;14537;47.788;11.858;2022-10-16T05:13:22;4.28;;;1.70;;
26989;SDS011;14537;47.788;11.858;2022-10-16T05:15:48;2.45;;;1.50;;
26989;SDS011;14537;47.788;11.858;2022-10-16T05:18:14;1.88;;;1.40;;
26989;SDS011;14537;47.788;11.858;2022-10-16T05:20:41;2.00;;;1.30;;
26989;SDS011;14537;47.788;11.858;2022-10-16T05:23:07;1.75;;;1.15;;
26989;SDS011;14537;47.788;11.858;2022-10-16T05:25:35;2.95;;;1.25;;
26989;SDS011;14537;47.788;11.858;2022-10-16T05:28:01;2.03;;;1.52;;
26989;SDS011;14537;47.788;11.858;2022-10-16T05:30:27;2.63;;;1.52;;
26989;SDS011;14537;47.788;11.858;2022-10-16T05:32:52;2.35;;;1.38;;
26989;SDS011;14537;47.788;11.858;2022-10-16T05:35:18;3.33;;;1.60;;
26989;SDS011;14537;47.788;11.858;2022-10-16T05:37:44;3.22;;;1.80;;
26989;SDS011;14537;47.788;11.858;2022-10-16T05:40:10;3.30;;;1.70;;
26989;SDS011;14537;47.788;11.858;2022-10-16T05:42:37;2.63;;;1.40;;
26989;SDS011;14537;47.788;11.858;2022-10-16T05:45:04;4.93;;;3.33;;
26989;SDS011;14537;47.788;11.858;2022-10-16T05:47:31;6.80;;;3.90;;
26989;SDS011;14537;47.788;11.858;2022-10-16T05:49:57;5.20;;;2.45;;
26989;SDS011;14537;47.788;11.858;2022-10-16T05:52:22;2.95;;;1.90;;
26989;SDS011;14537;47.788;11.858;2022-10-16T05:54:48;4.00;;;1.98;;
26989;SDS011;14537;47.788;11.858;2022-10-16T05:57:14;2.60;;;1.70;;
26989;SDS011;14537;47.788;11.858;2022-10-16T05:59:40;1.90;;;1.25;;
26989;SDS011;14537;47.788;11.858;2022-10-16T06:02:05;2.58;;;1.45;;
26989;SDS011;14537;47.788;11.858;2022-10-16T06:04:33;2.83;;;1.40;;
26989;SDS011;14537;47.788;11.858;2022-10-16T06:06:59;3.35;;;1.92;;
26989;SDS011;14537;47.788;11.858;2022-10-16T06:09:27;3.00;;;1.73;;
26989;SDS011;14537;47.788;11.858;2022-10-16T06:11:53;2.90;;;1.60;;
26989;SDS011;14537;47.788;11.858;2022-10-16T06:14:19;2.75;;;1.50;;
26989;SDS011;14537;47.788;11.858;2022-10-16T06:16:44;2.33;;;1.60;;
26989;SDS011;14537;47.788;11.858;2022-10-16T06:19:10;7.50;;;3.25;;
26989;SDS011;14537;47.788;11.858;2022-10-16T06:21:35;10.90;;;4.50;;
26989;SDS011;14537;47.788;11.858;2022-10-16T06:24:01;10.77;;;4.72;;
26989;SDS011;14537;47.788;11.858;2022-10-16T06:26:28;10.63;;;4.63;;
26989;SDS011;14537;47.788;11.858;2022-10-16T06:28:56;11.15;;;4.90;;
26989;SDS011;14537;47.788;11.858;2022-10-16T06:31:23;8.35;;;4.35;;
26989;SDS011;14537;47.788;11.858;2022-10-16T06:36:18;4.28;;;2.28;;
26989;SDS011;14537;47.788;11.858;2022-10-16T06:38:44;3.00;;;1.98;;
26989;SDS011;14537;47.788;11.858;2022-10-16T06:41:11;4.00;;;2.50;;
26989;SDS011;14537;47.788;11.858;2022-10-16T06:43:38;3.78;;;2.28;;
26989;SDS011;14537;47.788;11.858;2022-10-16T06:46:05;2.67;;;1.98;;
26989;SDS011;14537;47.788;11.858;2022-10-16T06:48:34;4.30;;;1.95;;
26989;SDS011;14537;47.788;11.858;2022-10-16T06:51:20;4.05;;;2.22;;
26989;SDS011;14537;47.788;11.858;2022-10-16T06:53:47;1.95;;;1.50;;
26989;SDS011;14537;47.788;11.858;2022-10-16T06:56:16;3.72;;;2.17;;
26989;SDS011;14537;47.788;11.858;2022-10-16T06:58:43;2.63;;;2.10;;
26989;SDS011;14537;47.788;11.858;2022-10-16T07:01:10;3.67;;;1.98;;
26989;SDS011;14537;47.788;11.858;2022-10-16T07:03:36;3.78;;;2.10;;
26989;SDS011;14537;47.788;11.858;2022-10-16T07:06:03;3.88;;;1.85;;
26989;SDS011;14537;47.788;11.858;2022-10-16T07:08:31;3.60;;;2.08;;
26989;SDS011;14537;47.788;11.858;2022-10-16T07:11:01;3.67;;;2.60;;
26989;SDS011;14537;47.788;11.858;2022-10-16T07:13:29;6.30;;;3.85;;
26989;SDS011;14537;47.788;11.858;2022-10-16T07:15:57;9.07;;;4.55;;
26989;SDS011;14537;47.788;11.858;2022-10-16T07:18:23;5.45;;;2.92;;
26989;SDS011;14537;47.788;11.858;2022-10-16T07:20:51;5.72;;;2.40;;
26989;SDS011;14537;47.788;11.858;2022-10-16T07:23:17;3.70;;;2.10;;
26989;SDS011;14537;47.788;11.858;2022-10-16T07:25:43;3.80;;;2.13;;
26989;SDS011;14537;47.788;11.858;2022-10-16T07:28:08;3.75;;;2.15;;
26989;SDS011;14537;47.788;11.858;2022-10-16T07:30:35;2.92;;;2.08;;
26989;SDS011;14537;47.788;11.858;2022-10-16T07:33:02;2.40;;;1.60;;
26989;SDS011;14537;47.788;11.858;2022-10-16T07:35:28;2.60;;;1.75;;
26989;SDS011;14537;47.788;11.858;2022-10-16T07:37:54;2.38;;;1.60;;
26989;SDS011;14537;47.788;11.858;2022-10-16T07:40:19;2.95;;;1.77;;
26989;SDS011;14537;47.788;11.858;2022-10-16T07:42:45;1.85;;;1.30;;
26989;SDS011;14537;47.788;11.858;2022-10-16T07:45:11;1.73;;;1.25;;
26989;SDS011;14537;47.788;11.858;2022-10-16T07:47:36;3.15;;;1.60;;
26989;SDS011;14537;47.788;11.858;2022-10-16T07:50:02;3.33;;;1.80;;
26989;SDS011;14537;47.788;11.858;2022-10-16T07:52:28;4.35;;;1.80;;
26989;SDS011;14537;47.788;11.858;2022-10-16T07:54:54;2.05;;;1.48;;
26989;SDS011;14537;47.788;11.858;2022-10-16T07:57:19;1.40;;;1.17;;
26989;SDS011;14537;47.788;11.858;2022-10-16T07:59:45;2.47;;;1.60;;
26989;SDS011;14537;47.788;11.858;2022-10-16T08:02:11;2.67;;;2.00;;
26989;SDS011;14537;47.788;11.858;2022-10-16T08:04:37;3.70;;;2.15;;
26989;SDS011;14537;47.788;11.858;2022-10-16T08:07:03;5.70;;;1.60;;
26989;SDS011;14537;47.788;11.858;2022-10-16T08:09:28;3.72;;;1.92;;
26989;SDS011;14537;47.788;11.858;2022-10-16T08:11:54;2.72;;;1.63;;
26989;SDS011;14537;47.788;11.858;2022-10-16T08:14:20;3.13;;;1.58;;
26989;SDS011;14537;47.788;11.858;2022-10-16T08:16:45;3.97;;;2.20;;
26989;SDS011;14537;47.788;11.858;2022-10-16T08:19:11;3.33;;;2.00;;
26989;SDS011;14537;47.788;11.858;2022-10-16T08:21:37;8.73;;;2.33;;
26989;SDS011;14537;47.788;11.858;2022-10-16T08:24:02;3.42;;;2.13;;
26989;SDS011;14537;47.788;11.858;2022-10-16T08:26:28;3.15;;;2.00;;
26989;SDS011;14537;47.788;11.858;2022-10-16T08:28:55;3.92;;;2.80;;
26989;SDS011;14537;47.788;11.858;2022-10-16T08:31:21;4.18;;;2.35;;
26989;SDS011;14537;47.788;11.858;2022-10-16T08:33:46;4.90;;;2.42;;
26989;SDS011;14537;47.788;11.858;2022-10-16T08:36:13;3.95;;;2.28;;
26989;SDS011;14537;47.788;11.858;2022-10-16T08:38:40;4.35;;;2.17;;
26989;SDS011;14537;47.788;11.858;2022-10-16T08:43:56;4.25;;;2.42;;
26989;SDS011;14537;47.788;11.858;2022-10-16T08:46:50;3.78;;;2.35;;
26989;SDS011;14537;47.788;11.858;2022-10-16T08:49:18;4.25;;;2.13;;
26989;SDS011;14537;47.788;11.858;2022-10-16T08:51:44;4.93;;;2.20;;
26989;SDS011;14537;47.788;11.858;2022-10-16T08:56:43;3.40;;;2.20;;
26989;SDS011;14537;47.788;11.858;2022-10-16T08:59:11;3.30;;;1.90;;
26989;SDS011;14537;47.788;11.858;2022-10-16T09:01:41;3.17;;;2.08;;
26989;SDS011;14537;47.788;11.858;2022-10-16T09:04:25;2.75;;;1.63;;
26989;SDS011;14537;47.788;11.858;2022-10-16T09:07:21;4.85;;;2.35;;
26989;SDS011;14537;47.788;11.858;2022-10-16T09:12:48;4.53;;;2.20;;
26989;SDS011;14537;47.788;11.858;2022-10-16T09:15:32;3.85;;;1.83;;
26989;SDS011;14537;47.788;11.858;2022-10-16T09:21:19;1.73;;;1.38;;
26989;SDS011;14537;47.788;11.858;2022-10-16T09:23:48;2.97;;;1.55;;
26989;SDS011;14537;47.788;11.858;2022-10-16T09:26:15;3.17;;;2.03;;
26989;SDS011;14537;47.788;11.858;2022-10-16T09:28:43;3.80;;;1.63;;
26989;SDS011;14537;47.788;11.858;2022-10-16T09:31:18;2.97;;;1.70;;
26989;SDS011;14537;47.788;11.858;2022-10-16T09:33:53;3.67;;;1.55;;
26989;SDS011;14537;47.788;11.858;2022-10-16T09:36:23;2.72;;;1.33;;
26989;SDS011;14537;47.788;11.858;2022-10-16T09:39:01;3.10;;;1.73;;
26989;SDS011;14537;47.788;11.858;2022-10-16T09:41:33;2.05;;;1.42;;
26989;SDS011;14537;47.788;11.858;2022-10-16T09:46:28;1.60;;;1.00;;
26989;SDS011;14537;47.788;11.858;2022-10-16T09:49:05;1.38;;;0.93;;
26989;SDS011;14537;47.788;11.858;2022-10-16T09:51:46;1.48;;;1.10;;
26989;SDS011;14537;47.788;11.858;2022-10-16T09:54:14;2.03;;;1.10;;
26989;SDS011;14537;47.788;11.858;2022-10-16T09:56:44;2.90;;;1.30;;
26989;SDS011;14537;47.788;11.858;2022-10-16T09:59:21;2.03;;;1.35;;
26989;SDS011;14537;47.788;11.858;2022-10-16T10:01:52;4.22;;;1.88;;
26989;SDS011;14537;47.788;11.858;2022-10-16T10:04:20;2.28;;;1.50;;
26989;SDS011;14537;47.788;11.858;2022-10-16T10:06:52;2.88;;;1.70;;
26989;SDS011;14537;47.788;11.858;2022-10-16T10:11:58;2.75;;;1.40;;
26989;SDS011;14537;47.788;11.858;2022-10-16T10:19:30;2.25;;;1.08;;
26989;SDS011;14537;47.788;11.858;2022-10-16T10:22:23;1.30;;;0.70;;
26989;SDS011;14537;47.788;11.858;2022-10-16T10:47:24;0.52;;;0.43;;
26989;SDS011;14537;47.788;11.858;2022-10-16T11:00:57;2.20;;;0.30;;
26989;SDS011;14537;47.788;11.858;2022-10-16T11:06:52;1.40;;;0.20;;
26989;SDS011;14537;47.788;11.858;2022-10-16T11:09:45;0.40;;;0.40;;
26989;SDS011;14537;47.788;11.858;2022-10-16T11:14:49;0.28;;;0.20;;
26989;SDS011;14537;47.788;11.858;2022-10-16T11:17:25;0.32;;;0.30;;
26989;SDS011;14537;47.788;11.858;2022-10-16T11:22:39;0.40;;;0.25;;
26989;SDS011;14537;47.788;11.858;2022-10-16T11:30:42;0.47;;;0.25;;
26989;SDS011;14537;47.788;11.858;2022-10-16T11:39:08;0.68;;;0.40;;
26989;SDS011;14537;47.788;11.858;2022-10-16T11:41:52;0.45;;;0.40;;
26989;SDS011;14537;47.788;11.858;2022-10-16T11:49:36;0.50;;;0.40;;
26989;SDS011;14537;47.788;11.858;2022-10-16T11:57:35;0.55;;;0.40;;
26989;SDS011;14537;47.788;11.858;2022-10-16T12:00:14;0.50;;;0.40;;
26989;SDS011;14537;47.788;11.858;2022-10-16T12:08:15;0.40;;;0.20;;
26989;SDS011;14537;47.788;11.858;2022-10-16T12:10:43;0.22;;;0.22;;
26989;SDS011;14537;47.788;11.858;2022-10-16T12:16:21;0.20;;;0.20;;
26989;SDS011;14537;47.788;11.858;2022-10-16T12:18:48;0.80;;;0.10;;
26989;SDS011;14537;47.788;11.858;2022-10-16T12:21:15;0.28;;;0.20;;
26989;SDS011;14537;47.788;11.858;2022-10-16T12:23:56;0.20;;;0.20;;
26989;SDS011;14537;47.788;11.858;2022-10-16T12:26:25;2.78;;;0.32;;
26989;SDS011;14537;47.788;11.858;2022-10-16T12:28:53;3.53;;;1.17;;
26989;SDS011;14537;47.788;11.858;2022-10-16T12:31:20;1.15;;;0.30;;
26989;SDS011;14537;47.788;11.858;2022-10-16T12:33:56;0.57;;;0.40;;
26989;SDS011;14537;47.788;11.858;2022-10-16T12:36:31;0.38;;;0.35;;
26989;SDS011;14537;47.788;11.858;2022-10-16T12:38:58;0.38;;;0.38;;
26989;SDS011;14537;47.788;11.858;2022-10-16T12:41:26;0.40;;;0.40;;
26989;SDS011;14537;47.788;11.858;2022-10-16T12:43:54;6.35;;;0.25;;
26989;SDS011;14537;47.788;11.858;2022-10-16T12:46:21;0.50;;;0.30;;
26989;SDS011;14537;47.788;11.858;2022-10-16T12:49:04;0.63;;;0.20;;
26989;SDS011;14537;47.788;11.858;2022-10-16T12:51:50;2.00;;;0.35;;
26989;SDS011;14537;47.788;11.858;2022-10-16T12:54:17;0.22;;;0.20;;
26989;SDS011;14537;47.788;11.858;2022-10-16T12:57:03;3.10;;;0.30;;
26989;SDS011;14537;47.788;11.858;2022-10-16T13:02:49;0.20;;;0.20;;
26989;SDS011;14537;47.788;11.858;2022-10-16T13:08:13;2.03;;;0.30;;
26989;SDS011;14537;47.788;11.858;2022-10-16T13:16:00;0.52;;;0.50;;
26989;SDS011;14537;47.788;11.858;2022-10-16T13:18:54;0.10;;;0.10;;
26989;SDS011;14537;47.788;11.858;2022-10-16T13:21:29;2.53;;;0.50;;
26989;SDS011;14537;47.788;11.858;2022-10-16T13:24:12;0.85;;;0.70;;
26989;SDS011;14537;47.788;11.858;2022-10-16T13:27:07;1.00;;;0.73;;
26989;SDS011;14537;47.788;11.858;2022-10-16T13:29:49;0.75;;;0.75;;
26989;SDS011;14537;47.788;11.858;2022-10-16T13:32:20;6.78;;;1.02;;
26989;SDS011;14537;47.788;11.858;2022-10-16T13:34:47;1.35;;;1.00;;
26989;SDS011;14537;47.788;11.858;2022-10-16T13:37:32;2.20;;;0.90;;
26989;SDS011;14537;47.788;11.858;2022-10-16T13:42:47;0.80;;;0.70;;
26989;SDS011;14537;47.788;11.858;2022-10-16T13:45:23;0.75;;;0.75;;
26989;SDS011;14537;47.788;11.858;2022-10-16T13:48:05;1.08;;;0.77;;
26989;SDS011;14537;47.788;11.858;2022-10-16T13:50:34;1.15;;;0.90;;
26989;SDS011;14537;47.788;11.858;2022-10-16T13:53:03;2.03;;;1.00;;
26989;SDS011;14537;47.788;11.858;2022-10-16T13:55:37;1.40;;;1.10;;
26989;SDS011;14537;47.788;11.858;2022-10-16T13:58:21;1.92;;;0.90;;
26989;SDS011;14537;47.788;11.858;2022-10-16T14:00:54;1.83;;;0.93;;
26989;SDS011;14537;47.788;11.858;2022-10-16T14:03:22;1.15;;;0.80;;
26989;SDS011;14537;47.788;11.858;2022-10-16T14:05:49;0.85;;;0.80;;
26989;SDS011;14537;47.788;11.858;2022-10-16T14:08:17;0.90;;;0.80;;
26989;SDS011;14537;47.788;11.858;2022-10-16T14:10:46;1.20;;;0.98;;
26989;SDS011;14537;47.788;11.858;2022-10-16T14:13:15;1.00;;;0.73;;
26989;SDS011;14537;47.788;11.858;2022-10-16T14:15:48;1.35;;;0.60;;
26989;SDS011;14537;47.788;11.858;2022-10-16T14:18:23;3.08;;;0.65;;
26989;SDS011;14537;47.788;11.858;2022-10-16T14:20:51;0.65;;;0.50;;
26989;SDS011;14537;47.788;11.858;2022-10-16T14:23:30;1.08;;;0.70;;
26989;SDS011;14537;47.788;11.858;2022-10-16T14:28:35;0.50;;;0.40;;
26989;SDS011;14537;47.788;11.858;2022-10-16T14:31:13;2.42;;;0.80;;
26989;SDS011;14537;47.788;11.858;2022-10-16T14:34:23;1.38;;;0.70;;
26989;SDS011;14537;47.788;11.858;2022-10-16T14:37:00;0.90;;;0.70;;
26989;SDS011;14537;47.788;11.858;2022-10-16T14:39:32;0.93;;;0.70;;
26989;SDS011;14537;47.788;11.858;2022-10-16T14:41:58;0.65;;;0.50;;
26989;SDS011;14537;47.788;11.858;2022-10-16T14:44:33;0.80;;;0.50;;
26989;SDS011;14537;47.788;11.858;2022-10-16T14:47:06;0.77;;;0.70;;
26989;SDS011;14537;47.788;11.858;2022-10-16T14:49:34;0.73;;;0.60;;
26989;SDS011;14537;47.788;11.858;2022-10-16T14:52:00;2.40;;;0.50;;
26989;SDS011;14537;47.788;11.858;2022-10-16T14:54:26;0.55;;;0.50;;
26989;SDS011;14537;47.788;11.858;2022-10-16T14:59:39;2.58;;;0.65;;
26989;SDS011;14537;47.788;11.858;2022-10-16T15:02:28;0.57;;;0.50;;
26989;SDS011;14537;47.788;11.858;2022-10-16T15:04:54;1.52;;;0.60;;
26989;SDS011;14537;47.788;11.858;2022-10-16T15:07:20;2.45;;;0.60;;
26989;SDS011;14537;47.788;11.858;2022-10-16T15:09:46;0.63;;;0.47;;
26989;SDS011;14537;47.788;11.858;2022-10-16T15:12:12;1.05;;;0.70;;
26989;SDS011;14537;47.788;11.858;2022-10-16T15:14:37;0.68;;;0.57;;
26989;SDS011;14537;47.788;11.858;2022-10-16T15:17:03;0.90;;;0.80;;
26989;SDS011;14537;47.788;11.858;2022-10-16T15:19:29;1.73;;;0.90;;
26989;SDS011;14537;47.788;11.858;2022-10-16T15:21:55;0.68;;;0.60;;
26989;SDS011;14537;47.788;11.858;2022-10-16T15:24:21;0.90;;;0.55;;
26989;SDS011;14537;47.788;11.858;2022-10-16T15:26:47;3.05;;;0.90;;
26989;SDS011;14537;47.788;11.858;2022-10-16T15:29:14;8.60;;;3.70;;
26989;SDS011;14537;47.788;11.858;2022-10-16T15:31:39;8.80;;;4.05;;
26989;SDS011;14537;47.788;11.858;2022-10-16T15:34:08;5.20;;;2.05;;
26989;SDS011;14537;47.788;11.858;2022-10-16T15:36:34;2.58;;;1.40;;
26989;SDS011;14537;47.788;11.858;2022-10-16T15:39:08;1.63;;;1.00;;
26989;SDS011;14537;47.788;11.858;2022-10-16T15:41:38;11.40;;;3.88;;
26989;SDS011;14537;47.788;11.858;2022-10-16T15:44:05;9.02;;;4.15;;
26989;SDS011;14537;47.788;11.858;2022-10-16T15:46:30;2.22;;;1.17;;
26989;SDS011;14537;47.788;11.858;2022-10-16T15:48:58;2.15;;;1.08;;
26989;SDS011;14537;47.788;11.858;2022-10-16T15:51:24;0.75;;;0.70;;
26989;SDS011;14537;47.788;11.858;2022-10-16T15:53:57;1.55;;;0.70;;
26989;SDS011;14537;47.788;11.858;2022-10-16T15:56:24;5.57;;;0.88;;
26989;SDS011;14537;47.788;11.858;2022-10-16T15:58:51;0.95;;;0.60;;
26989;SDS011;14537;47.788;11.858;2022-10-16T16:01:18;1.10;;;0.70;;
26989;SDS011;14537;47.788;11.858;2022-10-16T16:03:44;2.35;;;1.20;;
26989;SDS011;14537;47.788;11.858;2022-10-16T16:06:10;2.13;;;1.30;;
26989;SDS011;14537;47.788;11.858;2022-10-16T16:08:37;1.08;;;0.90;;
26989;SDS011;14537;47.788;11.858;2022-10-16T16:11:07;1.10;;;0.82;;
26989;SDS011;14537;47.788;11.858;2022-10-16T16:13:34;2.10;;;0.90;;
26989;SDS011;14537;47.788;11.858;2022-10-16T16:16:04;0.75;;;0.55;;
26989;SDS011;14537;47.788;11.858;2022-10-16T16:18:31;1.95;;;1.20;;
26989;SDS011;14537;47.788;11.858;2022-10-16T16:20:57;2.28;;;1.17;;
26989;SDS011;14537;47.788;11.858;2022-10-16T16:23:23;1.67;;;1.00;;
26989;SDS011;14537;47.788;11.858;2022-10-16T16:28:40;1.88;;;0.98;;
26989;SDS011;14537;47.788;11.858;2022-10-16T16:31:07;2.75;;;1.10;;
26989;SDS011;14537;47.788;11.858;2022-10-16T16:33:33;5.47;;;1.52;;
26989;SDS011;14537;47.788;11.858;2022-10-16T16:36:00;3.78;;;2.20;;
26989;SDS011;14537;47.788;11.858;2022-10-16T16:38:27;4.72;;;2.00;;
26989;SDS011;14537;47.788;11.858;2022-10-16T16:40:54;3.00;;;1.60;;
26989;SDS011;14537;47.788;11.858;2022-10-16T16:43:26;2.88;;;1.70;;
26989;SDS011;14537;47.788;11.858;2022-10-16T16:45:53;4.10;;;2.22;;
26989;SDS011;14537;47.788;11.858;2022-10-16T16:48:19;6.00;;;3.13;;
26989;SDS011;14537;47.788;11.858;2022-10-16T16:50:46;5.97;;;2.90;;
26989;SDS011;14537;47.788;11.858;2022-10-16T16:53:11;4.72;;;2.55;;
26989;SDS011;14537;47.788;11.858;2022-10-16T16:55:37;4.80;;;1.60;;
26989;SDS011;14537;47.788;11.858;2022-10-16T16:58:04;1.63;;;1.13;;
26989;SDS011;14537;47.788;11.858;2022-10-16T17:00:30;2.05;;;0.80;;
26989;SDS011;14537;47.788;11.858;2022-10-16T17:02:56;1.88;;;0.90;;